sensor_id;sensor_type;location;lat;lon;timestamp;pressure;altitude;pressure_sealevel;temperature;humidity
64614;BME280;51025;37.772;-122.432;2023-07-31T00:02:28;100962.75;;;24.26;27.41
64614;BME280;51025;37.772;-122.432;2023-07-31T00:04:56;100960.36;;;23.98;27.36
64614;BME280;51025;37.772;-122.432;2023-07-31T00:07:24;100964.12;;;24.07;27.23
64614;BME280;51025;37.772;-122.432;2023-07-31T00:09:53;100963.41;;;23.90;27.36
64614;BME280;51025;37.772;-122.432;2023-07-31T00:12:21;100959.91;;;23.06;27.80
64614;BME280;51025;37.772;-122.432;2023-07-31T00:14:50;100957.27;;;23.37;27.76
64614;BME280;51025;37.772;-122.432;2023-07-31T00:17:18;100954.02;;;23.69;27.55
64614;BME280;51025;37.772;-122.432;2023-07-31T00:19:47;100948.17;;;23.44;27.70
64614;BME280;51025;37.772;-122.432;2023-07-31T00:22:15;100944.19;;;23.61;27.60
64614;BME280;51025;37.772;-122.432;2023-07-31T00:24:44;100945.52;;;24.00;27.84
64614;BME280;51025;37.772;-122.432;2023-07-31T00:27:12;100937.35;;;23.74;27.46
64614;BME280;51025;37.772;-122.432;2023-07-31T00:29:40;100937.27;;;23.49;27.60
64614;BME280;51025;37.772;-122.432;2023-07-31T00:32:08;100939.24;;;23.39;27.72
64614;BME280;51025;37.772;-122.432;2023-07-31T00:34:37;100941.61;;;23.48;27.89
64614;BME280;51025;37.772;-122.432;2023-07-31T00:37:05;100948.79;;;22.85;27.45
64614;BME280;51025;37.772;-122.432;2023-07-31T00:39:35;100958.13;;;24.19;27.06
64614;BME280;51025;37.772;-122.432;2023-07-31T00:42:04;100966.46;;;23.24;27.53
64614;BME280;51025;37.772;-122.432;2023-07-31T00:44:32;100966.57;;;23.72;27.71
64614;BME280;51025;37.772;-122.432;2023-07-31T00:47:01;100975.36;;;23.07;27.34
64614;BME280;51025;37.772;-122.432;2023-07-31T00:49:31;100971.80;;;23.52;27.57
64614;BME280;51025;37.772;-122.432;2023-07-31T00:52:00;100972.48;;;23.80;27.35
64614;BME280;51025;37.772;-122.432;2023-07-31T00:54:28;100970.26;;;23.31;27.71
64614;BME280;51025;37.772;-122.432;2023-07-31T00:56:57;100969.45;;;23.72;27.15
64614;BME280;51025;37.772;-122.432;2023-07-31T00:59:25;100963.79;;;23.95;27.19
64614;BME280;51025;37.772;-122.432;2023-07-31T01:01:54;100965.03;;;23.60;27.50
64614;BME280;51025;37.772;-122.432;2023-07-31T01:04:22;100965.98;;;23.79;27.32
64614;BME280;51025;37.772;-122.432;2023-07-31T01:06:59;100967.24;;;24.48;27.03
64614;BME280;51025;37.772;-122.432;2023-07-31T01:09:40;100965.75;;;23.94;27.16
64614;BME280;51025;37.772;-122.432;2023-07-31T01:12:14;100969.02;;;23.99;27.15
64614;BME280;51025;37.772;-122.432;2023-07-31T01:14:52;100966.83;;;24.06;27.08
64614;BME280;51025;37.772;-122.432;2023-07-31T01:17:29;100970.82;;;24.12;27.03
64614;BME280;51025;37.772;-122.432;2023-07-31T01:20:02;100974.02;;;23.44;26.94
64614;BME280;51025;37.772;-122.432;2023-07-31T01:22:48;100969.17;;;24.22;26.92
64614;BME280;51025;37.772;-122.432;2023-07-31T01:25:36;100972.66;;;24.21;26.92
64614;BME280;51025;37.772;-122.432;2023-07-31T01:28:13;100977.73;;;24.32;26.80
64614;BME280;51025;37.772;-122.432;2023-07-31T01:30:43;100977.49;;;24.41;26.74
64614;BME280;51025;37.772;-122.432;2023-07-31T01:33:12;100979.63;;;24.44;26.70
64614;BME280;51025;37.772;-122.432;2023-07-31T01:35:44;100980.50;;;24.11;26.98
64614;BME280;51025;37.772;-122.432;2023-07-31T01:38:12;100984.95;;;24.33;26.80
64614;BME280;51025;37.772;-122.432;2023-07-31T01:40:42;100983.24;;;24.37;26.79
64614;BME280;51025;37.772;-122.432;2023-07-31T01:43:10;100978.97;;;24.17;26.93
64614;BME280;51025;37.772;-122.432;2023-07-31T01:45:38;100977.68;;;24.94;26.56
64614;BME280;51025;37.772;-122.432;2023-07-31T01:48:06;100977.77;;;23.69;26.65
64614;BME280;51025;37.772;-122.432;2023-07-31T01:50:35;100982.69;;;24.20;26.86
64614;BME280;51025;37.772;-122.432;2023-07-31T01:53:04;100975.08;;;23.32;26.67
64614;BME280;51025;37.772;-122.432;2023-07-31T01:55:32;100972.77;;;24.61;26.50
64614;BME280;51025;37.772;-122.432;2023-07-31T01:58:01;100975.46;;;23.00;27.16
64614;BME280;51025;37.772;-122.432;2023-07-31T02:00:29;100981.23;;;24.63;26.76
64614;BME280;51025;37.772;-122.432;2023-07-31T02:02:59;100979.37;;;23.59;27.03
64614;BME280;51025;37.772;-122.432;2023-07-31T02:05:27;100976.36;;;24.16;26.87
64614;BME280;51025;37.772;-122.432;2023-07-31T02:07:56;100972.84;;;23.92;26.74
64614;BME280;51025;37.772;-122.432;2023-07-31T02:10:24;100976.57;;;24.24;26.76
64614;BME280;51025;37.772;-122.432;2023-07-31T02:12:53;100979.95;;;24.26;26.73
64614;BME280;51025;37.772;-122.432;2023-07-31T02:15:21;100978.14;;;23.53;26.69
64614;BME280;51025;37.772;-122.432;2023-07-31T02:17:50;100979.54;;;24.79;26.88
64614;BME280;51025;37.772;-122.432;2023-07-31T02:20:19;100975.64;;;23.88;26.99
64614;BME280;51025;37.772;-122.432;2023-07-31T02:22:47;100977.50;;;23.94;26.93
64614;BME280;51025;37.772;-122.432;2023-07-31T02:25:16;100974.97;;;24.29;26.60
64614;BME280;51025;37.772;-122.432;2023-07-31T02:27:44;100986.31;;;24.19;26.67
64614;BME280;51025;37.772;-122.432;2023-07-31T02:30:12;100992.24;;;23.87;26.91
64614;BME280;51025;37.772;-122.432;2023-07-31T02:32:41;100994.08;;;23.97;26.83
64614;BME280;51025;37.772;-122.432;2023-07-31T02:35:09;100995.43;;;24.32;26.81
64614;BME280;51025;37.772;-122.432;2023-07-31T02:37:38;101001.87;;;23.66;27.01
64614;BME280;51025;37.772;-122.432;2023-07-31T02:40:07;101001.99;;;23.38;27.22
64614;BME280;51025;37.772;-122.432;2023-07-31T02:42:35;101000.72;;;23.93;27.02
64614;BME280;51025;37.772;-122.432;2023-07-31T02:45:04;100995.58;;;23.11;26.83
64614;BME280;51025;37.772;-122.432;2023-07-31T02:47:32;100996.13;;;23.21;27.32
64614;BME280;51025;37.772;-122.432;2023-07-31T02:50:01;100990.99;;;22.84;27.04
64614;BME280;51025;37.772;-122.432;2023-07-31T02:52:29;100997.31;;;24.10;26.61
64614;BME280;51025;37.772;-122.432;2023-07-31T02:54:58;100989.55;;;23.64;26.66
64614;BME280;51025;37.772;-122.432;2023-07-31T02:57:26;100990.77;;;23.78;26.85
64614;BME280;51025;37.772;-122.432;2023-07-31T02:59:55;100988.67;;;23.61;27.02
64614;BME280;51025;37.772;-122.432;2023-07-31T03:02:23;100987.93;;;23.50;27.04
64614;BME280;51025;37.772;-122.432;2023-07-31T03:04:52;100990.01;;;24.02;26.94
64614;BME280;51025;37.772;-122.432;2023-07-31T03:07:20;100986.64;;;23.68;26.89
64614;BME280;51025;37.772;-122.432;2023-07-31T03:09:48;100987.33;;;23.71;26.84
64614;BME280;51025;37.772;-122.432;2023-07-31T03:12:17;100989.39;;;23.61;26.94
64614;BME280;51025;37.772;-122.432;2023-07-31T03:14:46;100988.99;;;23.90;27.00
64614;BME280;51025;37.772;-122.432;2023-07-31T03:17:16;100990.48;;;24.11;27.16
64614;BME280;51025;37.772;-122.432;2023-07-31T03:19:44;100991.15;;;23.35;27.44
64614;BME280;51025;37.772;-122.432;2023-07-31T03:22:13;100986.62;;;23.12;27.31
64614;BME280;51025;37.772;-122.432;2023-07-31T03:24:41;100988.72;;;23.51;27.00
64614;BME280;51025;37.772;-122.432;2023-07-31T03:27:10;100990.57;;;23.29;27.16
64614;BME280;51025;37.772;-122.432;2023-07-31T03:29:37;100991.39;;;23.78;27.09
64614;BME280;51025;37.772;-122.432;2023-07-31T03:32:07;100990.29;;;23.07;27.09
64614;BME280;51025;37.772;-122.432;2023-07-31T03:34:35;100991.88;;;23.83;27.03
64614;BME280;51025;37.772;-122.432;2023-07-31T03:37:03;100993.37;;;23.38;27.09
64614;BME280;51025;37.772;-122.432;2023-07-31T03:39:31;100993.00;;;23.52;27.23
64614;BME280;51025;37.772;-122.432;2023-07-31T03:42:01;100997.06;;;22.60;27.12
64614;BME280;51025;37.772;-122.432;2023-07-31T03:44:29;100995.67;;;23.72;27.10
64614;BME280;51025;37.772;-122.432;2023-07-31T03:46:58;100995.54;;;23.08;27.30
64614;BME280;51025;37.772;-122.432;2023-07-31T03:49:26;100995.33;;;23.15;27.54
64614;BME280;51025;37.772;-122.432;2023-07-31T03:51:55;100990.09;;;23.39;27.08
64614;BME280;51025;37.772;-122.432;2023-07-31T03:54:23;100996.69;;;23.03;27.36
64614;BME280;51025;37.772;-122.432;2023-07-31T03:56:52;100993.02;;;23.08;27.62
64614;BME280;51025;37.772;-122.432;2023-07-31T03:59:20;100993.80;;;23.33;27.12
64614;BME280;51025;37.772;-122.432;2023-07-31T04:01:49;100993.17;;;23.11;27.59
64614;BME280;51025;37.772;-122.432;2023-07-31T04:04:17;100996.78;;;23.13;27.33
64614;BME280;51025;37.772;-122.432;2023-07-31T04:06:45;100991.28;;;23.21;27.49
64614;BME280;51025;37.772;-122.432;2023-07-31T04:09:13;100999.01;;;23.61;27.54
64614;BME280;51025;37.772;-122.432;2023-07-31T04:11:41;100999.96;;;23.62;27.48
64614;BME280;51025;37.772;-122.432;2023-07-31T04:14:09;101001.61;;;22.72;27.61
64614;BME280;51025;37.772;-122.432;2023-07-31T04:16:38;101001.67;;;22.83;27.56
64614;BME280;51025;37.772;-122.432;2023-07-31T04:19:06;101006.30;;;22.86;27.26
64614;BME280;51025;37.772;-122.432;2023-07-31T04:21:34;101002.86;;;23.57;27.22
64614;BME280;51025;37.772;-122.432;2023-07-31T04:24:04;101005.44;;;22.10;27.49
64614;BME280;51025;37.772;-122.432;2023-07-31T04:26:33;101016.55;;;22.75;27.64
64614;BME280;51025;37.772;-122.432;2023-07-31T04:29:02;101029.17;;;23.35;27.51
64614;BME280;51025;37.772;-122.432;2023-07-31T04:31:30;101027.86;;;23.60;27.65
64614;BME280;51025;37.772;-122.432;2023-07-31T04:33:58;101030.47;;;22.55;27.92
64614;BME280;51025;37.772;-122.432;2023-07-31T04:36:27;101035.16;;;23.05;27.87
64614;BME280;51025;37.772;-122.432;2023-07-31T04:38:55;101036.21;;;23.55;27.84
64614;BME280;51025;37.772;-122.432;2023-07-31T04:41:23;101033.18;;;23.13;27.86
64614;BME280;51025;37.772;-122.432;2023-07-31T04:43:52;101037.11;;;23.18;27.84
64614;BME280;51025;37.772;-122.432;2023-07-31T04:46:21;101036.50;;;22.61;27.99
64614;BME280;51025;37.772;-122.432;2023-07-31T04:48:49;101035.91;;;23.20;28.18
64614;BME280;51025;37.772;-122.432;2023-07-31T04:51:17;101041.68;;;23.24;28.17
64614;BME280;51025;37.772;-122.432;2023-07-31T04:53:46;101040.35;;;23.07;28.26
64614;BME280;51025;37.772;-122.432;2023-07-31T04:56:14;101035.21;;;22.66;27.94
64614;BME280;51025;37.772;-122.432;2023-07-31T04:58:43;101035.64;;;23.12;28.21
64614;BME280;51025;37.772;-122.432;2023-07-31T05:01:11;101026.79;;;22.71;28.22
64614;BME280;51025;37.772;-122.432;2023-07-31T05:03:39;101028.72;;;22.78;28.11
64614;BME280;51025;37.772;-122.432;2023-07-31T05:06:07;101025.52;;;23.10;27.84
64614;BME280;51025;37.772;-122.432;2023-07-31T05:08:35;101021.49;;;22.69;28.16
64614;BME280;51025;37.772;-122.432;2023-07-31T05:11:03;101025.43;;;22.32;28.19
64614;BME280;51025;37.772;-122.432;2023-07-31T05:13:32;101016.71;;;22.93;27.99
64614;BME280;51025;37.772;-122.432;2023-07-31T05:16:02;101016.09;;;22.43;28.08
64614;BME280;51025;37.772;-122.432;2023-07-31T05:18:30;101011.10;;;22.65;28.20
64614;BME280;51025;37.772;-122.432;2023-07-31T05:20:59;101011.21;;;22.45;27.73
64614;BME280;51025;37.772;-122.432;2023-07-31T05:23:28;101007.42;;;23.10;27.74
64614;BME280;51025;37.772;-122.432;2023-07-31T05:26:03;101003.42;;;22.83;27.95
64614;BME280;51025;37.772;-122.432;2023-07-31T05:28:33;101005.77;;;23.21;28.03
64614;BME280;51025;37.772;-122.432;2023-07-31T05:31:01;101001.51;;;22.35;28.02
64614;BME280;51025;37.772;-122.432;2023-07-31T05:33:30;101003.85;;;22.42;27.97
64614;BME280;51025;37.772;-122.432;2023-07-31T05:35:59;101009.59;;;22.29;28.10
64614;BME280;51025;37.772;-122.432;2023-07-31T05:38:28;101012.74;;;23.12;27.68
64614;BME280;51025;37.772;-122.432;2023-07-31T05:40:57;101015.77;;;22.49;27.89
64614;BME280;51025;37.772;-122.432;2023-07-31T05:43:25;101019.35;;;23.09;28.02
64614;BME280;51025;37.772;-122.432;2023-07-31T05:45:54;101035.55;;;22.87;28.18
64614;BME280;51025;37.772;-122.432;2023-07-31T05:48:22;101042.56;;;23.11;27.95
64614;BME280;51025;37.772;-122.432;2023-07-31T05:50:50;101054.55;;;22.40;28.24
64614;BME280;51025;37.772;-122.432;2023-07-31T05:53:19;101062.36;;;22.96;28.06
64614;BME280;51025;37.772;-122.432;2023-07-31T05:55:47;101073.32;;;22.98;28.09
64614;BME280;51025;37.772;-122.432;2023-07-31T05:58:15;101077.89;;;22.79;28.18
64614;BME280;51025;37.772;-122.432;2023-07-31T06:00:43;101071.73;;;22.93;28.08
64614;BME280;51025;37.772;-122.432;2023-07-31T06:03:11;101079.32;;;21.87;28.28
64614;BME280;51025;37.772;-122.432;2023-07-31T06:05:40;101076.84;;;22.84;28.09
64614;BME280;51025;37.772;-122.432;2023-07-31T06:08:09;101083.06;;;21.98;28.16
64614;BME280;51025;37.772;-122.432;2023-07-31T06:10:37;101078.85;;;22.83;28.08
64614;BME280;51025;37.772;-122.432;2023-07-31T06:13:05;101079.56;;;21.78;28.02
64614;BME280;51025;37.772;-122.432;2023-07-31T06:15:34;101080.97;;;22.17;27.94
64614;BME280;51025;37.772;-122.432;2023-07-31T06:18:03;101086.02;;;21.94;27.86
64614;BME280;51025;37.772;-122.432;2023-07-31T06:20:31;101080.05;;;22.94;27.92
64614;BME280;51025;37.772;-122.432;2023-07-31T06:23:00;101072.39;;;22.68;28.15
64614;BME280;51025;37.772;-122.432;2023-07-31T06:25:28;101063.63;;;22.86;28.30
64614;BME280;51025;37.772;-122.432;2023-07-31T06:27:58;101053.50;;;21.89;28.16
64614;BME280;51025;37.772;-122.432;2023-07-31T06:30:26;101051.89;;;22.74;28.11
64614;BME280;51025;37.772;-122.432;2023-07-31T06:32:54;101046.47;;;22.45;27.97
64614;BME280;51025;37.772;-122.432;2023-07-31T06:35:23;101043.86;;;22.72;28.09
64614;BME280;51025;37.772;-122.432;2023-07-31T06:37:51;101040.06;;;22.81;28.00
64614;BME280;51025;37.772;-122.432;2023-07-31T06:40:19;101039.88;;;22.61;28.17
64614;BME280;51025;37.772;-122.432;2023-07-31T06:42:48;101049.36;;;22.67;28.14
64614;BME280;51025;37.772;-122.432;2023-07-31T06:45:16;101051.95;;;22.66;28.12
64614;BME280;51025;37.772;-122.432;2023-07-31T06:47:44;101055.40;;;22.64;28.13
64614;BME280;51025;37.772;-122.432;2023-07-31T06:50:12;101055.45;;;22.74;28.02
64614;BME280;51025;37.772;-122.432;2023-07-31T06:52:40;101052.95;;;23.11;28.00
64614;BME280;51025;37.772;-122.432;2023-07-31T06:55:18;101057.66;;;21.82;28.11
64614;BME280;51025;37.772;-122.432;2023-07-31T06:57:46;101060.74;;;22.69;28.01
64614;BME280;51025;37.772;-122.432;2023-07-31T07:00:16;101062.78;;;22.73;27.97
64614;BME280;51025;37.772;-122.432;2023-07-31T07:02:44;101057.56;;;22.72;27.96
64614;BME280;51025;37.772;-122.432;2023-07-31T07:05:12;101054.90;;;21.85;28.05
64614;BME280;51025;37.772;-122.432;2023-07-31T07:07:42;101051.67;;;22.75;27.94
64614;BME280;51025;37.772;-122.432;2023-07-31T07:10:10;101048.97;;;22.20;28.05
64614;BME280;51025;37.772;-122.432;2023-07-31T07:12:39;101049.88;;;22.69;27.98
64614;BME280;51025;37.772;-122.432;2023-07-31T07:15:07;101043.47;;;22.27;27.99
64614;BME280;51025;37.772;-122.432;2023-07-31T07:17:36;101040.27;;;22.83;27.85
64614;BME280;51025;37.772;-122.432;2023-07-31T07:20:05;101036.62;;;21.71;28.14
64614;BME280;51025;37.772;-122.432;2023-07-31T07:22:33;101034.69;;;22.45;28.16
64614;BME280;51025;37.772;-122.432;2023-07-31T07:25:02;101040.20;;;21.80;28.08
64614;BME280;51025;37.772;-122.432;2023-07-31T07:27:30;101038.99;;;22.62;28.03
64614;BME280;51025;37.772;-122.432;2023-07-31T07:30:00;101036.82;;;21.64;28.17
64614;BME280;51025;37.772;-122.432;2023-07-31T07:32:28;101036.73;;;22.27;28.29
64614;BME280;51025;37.772;-122.432;2023-07-31T07:34:57;101039.79;;;22.37;28.21
64614;BME280;51025;37.772;-122.432;2023-07-31T07:37:25;101041.72;;;22.40;28.18
64614;BME280;51025;37.772;-122.432;2023-07-31T07:39:53;101041.37;;;22.33;28.25
64614;BME280;51025;37.772;-122.432;2023-07-31T07:42:22;101042.55;;;22.28;28.29
64614;BME280;51025;37.772;-122.432;2023-07-31T07:44:50;101041.18;;;22.46;28.13
64614;BME280;51025;37.772;-122.432;2023-07-31T07:47:18;101042.01;;;22.09;28.05
64614;BME280;51025;37.772;-122.432;2023-07-31T07:49:46;101041.06;;;22.50;28.04
64614;BME280;51025;37.772;-122.432;2023-07-31T07:52:14;101047.87;;;22.26;28.25
64614;BME280;51025;37.772;-122.432;2023-07-31T07:54:43;101044.75;;;22.34;28.15
64614;BME280;51025;37.772;-122.432;2023-07-31T07:57:11;101041.40;;;21.69;28.06
64614;BME280;51025;37.772;-122.432;2023-07-31T07:59:40;101042.02;;;22.29;28.19
64614;BME280;51025;37.772;-122.432;2023-07-31T08:02:08;101039.34;;;21.57;28.15
64614;BME280;51025;37.772;-122.432;2023-07-31T08:04:36;101034.71;;;22.50;28.01
64614;BME280;51025;37.772;-122.432;2023-07-31T08:07:05;101035.91;;;22.64;27.89
64614;BME280;51025;37.772;-122.432;2023-07-31T08:09:33;101035.65;;;22.54;28.26
64614;BME280;51025;37.772;-122.432;2023-07-31T08:12:02;101037.04;;;21.56;28.14
64614;BME280;51025;37.772;-122.432;2023-07-31T08:14:30;101036.32;;;22.42;28.05
64614;BME280;51025;37.772;-122.432;2023-07-31T08:16:58;101038.85;;;21.46;28.21
64614;BME280;51025;37.772;-122.432;2023-07-31T08:19:27;101041.40;;;22.33;28.12
64614;BME280;51025;37.772;-122.432;2023-07-31T08:21:56;101038.21;;;22.23;28.19
64614;BME280;51025;37.772;-122.432;2023-07-31T08:24:24;101037.97;;;22.24;28.17
64614;BME280;51025;37.772;-122.432;2023-07-31T08:26:53;101031.65;;;22.22;28.18
64614;BME280;51025;37.772;-122.432;2023-07-31T08:29:21;101031.03;;;22.60;28.16
64614;BME280;51025;37.772;-122.432;2023-07-31T08:31:50;101028.61;;;22.14;28.23
64614;BME280;51025;37.772;-122.432;2023-07-31T08:34:19;101026.88;;;22.19;28.19
64614;BME280;51025;37.772;-122.432;2023-07-31T08:36:47;101024.19;;;22.20;28.18
64614;BME280;51025;37.772;-122.432;2023-07-31T08:39:15;101020.11;;;22.19;28.16
64614;BME280;51025;37.772;-122.432;2023-07-31T08:41:43;101019.04;;;22.16;28.18
64614;BME280;51025;37.772;-122.432;2023-07-31T08:44:13;101015.93;;;21.70;28.20
64614;BME280;51025;37.772;-122.432;2023-07-31T08:46:42;101013.99;;;22.44;28.23
64614;BME280;51025;37.772;-122.432;2023-07-31T08:49:11;101014.51;;;21.98;28.30
64614;BME280;51025;37.772;-122.432;2023-07-31T08:51:40;101012.35;;;22.53;28.13
64614;BME280;51025;37.772;-122.432;2023-07-31T08:54:09;101012.20;;;22.11;28.20
64614;BME280;51025;37.772;-122.432;2023-07-31T08:56:39;101002.20;;;21.88;28.36
64614;BME280;51025;37.772;-122.432;2023-07-31T08:59:08;101000.88;;;22.28;28.04
64614;BME280;51025;37.772;-122.432;2023-07-31T09:01:41;101001.17;;;22.40;28.20
64614;BME280;51025;37.772;-122.432;2023-07-31T09:04:13;100996.57;;;21.91;28.31
64614;BME280;51025;37.772;-122.432;2023-07-31T09:06:42;100992.92;;;22.47;28.14
64614;BME280;51025;37.772;-122.432;2023-07-31T09:09:10;100988.01;;;22.22;28.03
64614;BME280;51025;37.772;-122.432;2023-07-31T09:11:38;100984.82;;;22.85;28.17
64614;BME280;51025;37.772;-122.432;2023-07-31T09:14:09;100985.35;;;21.45;28.30
64614;BME280;51025;37.772;-122.432;2023-07-31T09:16:52;100986.03;;;22.46;28.12
64614;BME280;51025;37.772;-122.432;2023-07-31T09:19:27;100982.12;;;22.42;28.12
64614;BME280;51025;37.772;-122.432;2023-07-31T09:21:56;100980.57;;;21.92;28.26
64614;BME280;51025;37.772;-122.432;2023-07-31T09:24:28;100976.55;;;22.13;28.09
64614;BME280;51025;37.772;-122.432;2023-07-31T09:26:58;100969.95;;;21.14;28.21
64614;BME280;51025;37.772;-122.432;2023-07-31T09:29:28;100969.22;;;22.22;28.22
64614;BME280;51025;37.772;-122.432;2023-07-31T09:31:57;100967.56;;;21.98;28.15
64614;BME280;51025;37.772;-122.432;2023-07-31T09:34:30;100971.82;;;22.37;28.12
64614;BME280;51025;37.772;-122.432;2023-07-31T09:37:05;100967.94;;;21.09;28.22
64614;BME280;51025;37.772;-122.432;2023-07-31T09:39:46;100967.72;;;22.19;28.24
64614;BME280;51025;37.772;-122.432;2023-07-31T09:42:25;100969.64;;;22.24;27.90
64614;BME280;51025;37.772;-122.432;2023-07-31T09:44:54;100972.73;;;22.06;28.02
64614;BME280;51025;37.772;-122.432;2023-07-31T09:47:22;100968.29;;;22.00;28.07
64614;BME280;51025;37.772;-122.432;2023-07-31T09:49:52;100969.79;;;22.27;28.12
64614;BME280;51025;37.772;-122.432;2023-07-31T09:52:21;100971.97;;;21.81;28.20
64614;BME280;51025;37.772;-122.432;2023-07-31T09:54:50;100968.69;;;22.29;28.08
64614;BME280;51025;37.772;-122.432;2023-07-31T09:57:19;100967.73;;;22.22;28.11
64614;BME280;51025;37.772;-122.432;2023-07-31T09:59:49;100967.04;;;22.21;28.11
64614;BME280;51025;37.772;-122.432;2023-07-31T10:02:22;100963.12;;;21.89;28.07
64614;BME280;51025;37.772;-122.432;2023-07-31T10:04:51;100963.42;;;21.78;28.15
64614;BME280;51025;37.772;-122.432;2023-07-31T10:07:24;100962.00;;;21.92;28.05
64614;BME280;51025;37.772;-122.432;2023-07-31T10:09:54;100961.10;;;21.93;28.00
64614;BME280;51025;37.772;-122.432;2023-07-31T10:12:27;100957.61;;;21.84;28.05
64614;BME280;51025;37.772;-122.432;2023-07-31T10:14:56;100953.94;;;22.03;27.91
64614;BME280;51025;37.772;-122.432;2023-07-31T10:17:25;100952.29;;;21.67;28.17
64614;BME280;51025;37.772;-122.432;2023-07-31T10:19:55;100952.27;;;22.08;27.81
64614;BME280;51025;37.772;-122.432;2023-07-31T10:22:25;100958.23;;;21.75;28.06
64614;BME280;51025;37.772;-122.432;2023-07-31T10:24:55;100963.14;;;21.73;28.06
64614;BME280;51025;37.772;-122.432;2023-07-31T10:27:26;100961.37;;;22.01;28.09
64614;BME280;51025;37.772;-122.432;2023-07-31T10:29:56;100962.92;;;21.69;28.04
64614;BME280;51025;37.772;-122.432;2023-07-31T10:32:26;100963.85;;;21.89;28.15
64614;BME280;51025;37.772;-122.432;2023-07-31T10:34:55;100965.28;;;21.74;27.97
64614;BME280;51025;37.772;-122.432;2023-07-31T10:37:25;100964.23;;;22.21;28.22
64614;BME280;51025;37.772;-122.432;2023-07-31T10:40:00;100967.30;;;21.88;28.11
64614;BME280;51025;37.772;-122.432;2023-07-31T10:42:31;100962.02;;;21.75;28.19
64614;BME280;51025;37.772;-122.432;2023-07-31T10:45:02;100963.09;;;21.79;27.85
64614;BME280;51025;37.772;-122.432;2023-07-31T10:47:31;100965.17;;;21.91;28.03
64614;BME280;51025;37.772;-122.432;2023-07-31T10:50:21;100967.52;;;21.37;28.17
64614;BME280;51025;37.772;-122.432;2023-07-31T10:52:50;100966.22;;;22.32;28.01
64614;BME280;51025;37.772;-122.432;2023-07-31T10:55:28;100967.60;;;21.87;28.00
64614;BME280;51025;37.772;-122.432;2023-07-31T10:58:04;100970.57;;;21.45;28.06
64614;BME280;51025;37.772;-122.432;2023-07-31T11:00:33;100967.95;;;21.82;28.03
64614;BME280;51025;37.772;-122.432;2023-07-31T11:03:06;100968.72;;;21.60;27.89
64614;BME280;51025;37.772;-122.432;2023-07-31T11:05:47;100961.63;;;21.77;28.04
64614;BME280;51025;37.772;-122.432;2023-07-31T11:08:17;100968.64;;;21.48;27.97
64614;BME280;51025;37.772;-122.432;2023-07-31T11:10:48;100964.12;;;21.70;28.07
64614;BME280;51025;37.772;-122.432;2023-07-31T11:13:16;100960.03;;;21.52;27.92
64614;BME280;51025;37.772;-122.432;2023-07-31T11:15:45;100958.75;;;21.84;27.96
64614;BME280;51025;37.772;-122.432;2023-07-31T11:18:14;100957.68;;;21.68;28.06
64614;BME280;51025;37.772;-122.432;2023-07-31T11:20:42;100958.63;;;22.13;28.04
64614;BME280;51025;37.772;-122.432;2023-07-31T11:23:11;100958.00;;;21.29;28.08
64614;BME280;51025;37.772;-122.432;2023-07-31T11:25:40;100961.31;;;21.69;28.02
64614;BME280;51025;37.772;-122.432;2023-07-31T11:28:10;100964.81;;;21.33;28.02
64614;BME280;51025;37.772;-122.432;2023-07-31T11:30:39;100965.34;;;21.70;28.00
64614;BME280;51025;37.772;-122.432;2023-07-31T11:33:08;100959.54;;;21.29;28.02
64614;BME280;51025;37.772;-122.432;2023-07-31T11:35:43;100958.75;;;21.75;27.92
64614;BME280;51025;37.772;-122.432;2023-07-31T11:38:14;100961.17;;;21.22;28.09
64614;BME280;51025;37.772;-122.432;2023-07-31T11:40:48;100961.91;;;21.93;28.13
64614;BME280;51025;37.772;-122.432;2023-07-31T11:43:17;100963.84;;;21.63;28.02
64614;BME280;51025;37.772;-122.432;2023-07-31T11:45:47;100961.18;;;22.20;27.87
64614;BME280;51025;37.772;-122.432;2023-07-31T11:48:24;100956.22;;;20.86;27.97
64614;BME280;51025;37.772;-122.432;2023-07-31T11:50:57;100958.02;;;21.47;27.80
64614;BME280;51025;37.772;-122.432;2023-07-31T11:53:28;100962.58;;;22.19;27.83
64614;BME280;51025;37.772;-122.432;2023-07-31T11:56:01;100965.25;;;21.35;27.88
64614;BME280;51025;37.772;-122.432;2023-07-31T11:58:31;100964.29;;;22.17;27.81
64614;BME280;51025;37.772;-122.432;2023-07-31T12:01:02;100968.08;;;21.34;27.86
64614;BME280;51025;37.772;-122.432;2023-07-31T12:03:32;100969.48;;;21.60;27.91
64614;BME280;51025;37.772;-122.432;2023-07-31T12:06:01;100973.95;;;20.93;27.84
64614;BME280;51025;37.772;-122.432;2023-07-31T12:08:30;100971.10;;;21.69;27.83
64614;BME280;51025;37.772;-122.432;2023-07-31T12:11:04;100967.93;;;21.18;27.94
64614;BME280;51025;37.772;-122.432;2023-07-31T12:13:33;100969.77;;;21.97;27.93
64614;BME280;51025;37.772;-122.432;2023-07-31T12:16:04;100974.89;;;21.11;28.01
64614;BME280;51025;37.772;-122.432;2023-07-31T12:18:35;100972.95;;;21.86;28.01
64614;BME280;51025;37.772;-122.432;2023-07-31T12:21:06;100968.86;;;21.12;27.98
64614;BME280;51025;37.772;-122.432;2023-07-31T12:23:35;100967.55;;;21.58;27.88
64614;BME280;51025;37.772;-122.432;2023-07-31T12:26:05;100971.12;;;20.76;27.91
64614;BME280;51025;37.772;-122.432;2023-07-31T12:28:36;100970.96;;;21.91;27.92
64614;BME280;51025;37.772;-122.432;2023-07-31T12:31:06;100975.18;;;21.35;28.01
64614;BME280;51025;37.772;-122.432;2023-07-31T12:33:36;100977.76;;;21.73;28.05